Time;durP1;ratioP1;P1;durP2;ratioP2;P2;SDS_P1;SDS_P2;PMS_P1;PMS_P2;Temp;Humidity;BMP_temperature;BMP_pressure;BME280_temperature;BME280_humidity;BME280_pressure;Samples;Min_cycle;Max_cycle;Signal;HPM_P1;HPM_P2
2023/07/21 00:01:49;;;;;;;0.28;0.28;;;;;;;21.01;100.00;99578.47;5004491;28;20040;-92
2023/07/21 00:04:14;;;;;;;0.10;0.10;;;;;;;20.95;100.00;99567.19;5015208;28;20037;-90
2023/07/21 00:06:43;;;;;;;0.32;0.30;;;;;;;20.99;100.00;99566.94;5015272;28;20477;-91
2023/07/21 00:09:09;;;;;;;0.30;0.30;;;;;;;20.91;100.00;99560.31;5000153;28;20432;-92
2023/07/21 00:11:35;;;;;;;0.77;0.30;;;;;;;20.83;100.00;99574.19;5018446;28;20118;-92
2023/07/21 00:14:01;;;;;;;1.38;0.52;;;;;;;20.80;100.00;99566.00;5016777;28;20068;-91
2023/07/21 00:16:27;;;;;;;1.13;0.90;;;;;;;20.84;100.00;99566.50;5014471;28;20718;-91
2023/07/21 00:18:53;;;;;;;2.30;1.05;;;;;;;20.83;100.00;99565.72;5009094;28;20501;-91
2023/07/21 00:21:19;;;;;;;1.40;0.80;;;;;;;20.88;100.00;99569.81;5010271;28;20050;-93
2023/07/21 00:23:46;;;;;;;0.63;0.63;;;;;;;20.86;100.00;99547.03;5019132;28;20073;-92
2023/07/21 00:26:13;;;;;;;0.73;0.73;;;;;;;20.78;100.00;99526.31;5029359;28;20460;-91
2023/07/21 00:28:39;;;;;;;0.32;0.32;;;;;;;20.88;100.00;99538.78;5009211;28;20029;-91
2023/07/21 00:31:05;;;;;;;0.40;0.40;;;;;;;20.90;100.00;99533.41;5028858;28;20029;-92
2023/07/21 00:33:30;;;;;;;1.52;1.08;;;;;;;20.93;100.00;99557.75;5001786;28;20025;-91
2023/07/21 00:35:57;;;;;;;0.30;0.30;;;;;;;20.90;100.00;99558.78;5027881;28;20052;-92
2023/07/21 00:38:22;;;;;;;0.13;0.13;;;;;;;20.86;100.00;99552.66;5021965;28;20033;-91
2023/07/21 00:40:48;;;;;;;0.20;0.20;;;;;;;20.78;100.00;99549.63;5013779;28;20029;-91
2023/07/21 00:43:15;;;;;;;1.33;1.23;;;;;;;20.52;100.00;99528.69;5013977;28;20063;-92
2023/07/21 00:45:40;;;;;;;0.20;0.20;;;;;;;20.61;100.00;99545.31;5010981;28;20495;-92
2023/07/21 00:48:09;;;;;;;0.20;0.20;;;;;;;20.50;100.00;99536.91;5020441;28;20037;-91
2023/07/21 00:50:42;;;;;;;0.40;0.40;;;;;;;20.45;100.00;99530.00;5011566;28;20558;-91
2023/07/21 00:53:10;;;;;;;0.80;0.75;;;;;;;20.35;100.00;99512.63;5026136;28;20114;-90
2023/07/21 00:55:37;;;;;;;0.63;0.50;;;;;;;20.50;100.00;99520.00;5030334;28;20474;-92
2023/07/21 00:58:03;;;;;;;0.32;0.32;;;;;;;20.60;100.00;99530.47;5011678;28;20405;-92
2023/07/21 01:00:28;;;;;;;0.17;0.17;;;;;;;20.60;100.00;99529.69;5011972;28;20099;-92
2023/07/21 01:21:02;;;;;;;0.25;0.25;;;;;;;20.46;100.00;99506.94;4995438;28;20505;-91
2023/07/21 01:23:54;;;;;;;0.55;0.55;;;;;;;20.56;100.00;99523.56;4975326;28;20077;-91
2023/07/21 01:26:20;;;;;;;0.57;0.45;;;;;;;20.58;100.00;99518.19;4983498;28;20046;-92
2023/07/21 01:28:47;;;;;;;0.63;0.63;;;;;;;20.51;100.00;99522.28;4974132;28;20050;-91
2023/07/21 01:31:13;;;;;;;0.30;0.30;;;;;;;20.58;100.00;99527.41;4973064;28;20034;-91
2023/07/21 01:33:40;;;;;;;0.45;0.38;;;;;;;20.61;100.00;99534.81;4990807;28;20493;-92
2023/07/21 01:36:06;;;;;;;0.25;0.25;;;;;;;20.64;100.00;99527.38;4971544;28;20042;-91
2023/07/21 01:38:32;;;;;;;0.68;0.68;;;;;;;20.59;100.00;99528.16;4983856;28;20391;-90
2023/07/21 01:40:58;;;;;;;0.40;0.40;;;;;;;20.71;100.00;99546.56;4973700;28;20042;-92
2023/07/21 01:43:24;;;;;;;0.52;0.52;;;;;;;20.57;100.00;99530.75;4990654;28;20148;-91
2023/07/21 01:45:49;;;;;;;0.52;0.50;;;;;;;20.54;100.00;99523.31;4969344;28;20144;-91
2023/07/21 01:48:15;;;;;;;0.17;0.17;;;;;;;20.57;100.00;99525.09;4985588;28;20090;-92
2023/07/21 01:50:42;;;;;;;0.13;0.13;;;;;;;20.70;100.00;99545.81;4971032;28;20042;-92
2023/07/21 01:53:14;;;;;;;0.30;0.30;;;;;;;20.76;100.00;99537.31;4972637;28;20065;-93
2023/07/21 01:55:58;;;;;;;1.55;1.13;;;;;;;20.79;100.00;99527.81;4972786;28;20060;-91
2023/07/21 01:58:26;;;;;;;0.65;0.65;;;;;;;20.84;100.00;99529.84;4957212;28;20404;-91
2023/07/21 02:00:51;;;;;;;0.30;0.30;;;;;;;20.78;100.00;99512.22;4988822;28;20042;-92
2023/07/21 02:03:18;;;;;;;0.35;0.35;;;;;;;20.84;100.00;99544.72;4958527;28;20405;-92
2023/07/21 02:05:43;;;;;;;0.50;0.50;;;;;;;20.62;100.00;99510.22;5003577;28;20042;-92
2023/07/21 02:08:10;;;;;;;0.47;0.35;;;;;;;20.80;100.00;99558.31;4958159;28;20046;-91
2023/07/21 02:10:36;;;;;;;0.88;0.65;;;;;;;20.80;100.00;99560.34;4988163;28;20482;-91
2023/07/21 02:13:31;;;;;;;0.40;0.40;;;;;;;20.80;100.00;99561.13;4980886;28;20449;-91
2023/07/21 02:15:58;;;;;;;1.20;1.08;;;;;;;20.79;100.00;99559.59;4975524;28;20039;-91
2023/07/21 02:18:23;;;;;;;0.43;0.30;;;;;;;20.75;100.00;99558.31;4974780;28;20211;-91
2023/07/21 02:20:49;;;;;;;0.30;0.30;;;;;;;20.83;100.00;99576.22;4998047;28;20163;-91
2023/07/21 02:23:15;;;;;;;0.65;0.47;;;;;;;20.72;100.00;99565.00;4982222;28;20042;-91
2023/07/21 02:25:41;;;;;;;1.00;0.82;;;;;;;20.78;100.00;99585.50;4984602;28;20056;-92
2023/07/21 02:28:08;;;;;;;0.40;0.40;;;;;;;20.73;100.00;99584.22;4991067;28;20429;-91
2023/07/21 02:30:33;;;;;;;0.57;0.57;;;;;;;20.62;100.00;99573.00;4977925;28;20179;-92
2023/07/21 02:32:59;;;;;;;0.65;0.65;;;;;;;20.63;100.00;99585.00;5007327;28;20037;-92
2023/07/21 02:35:25;;;;;;;0.60;0.57;;;;;;;20.62;100.00;99600.41;4984887;28;20036;-91
2023/07/21 02:37:51;;;;;;;0.32;0.32;;;;;;;20.50;100.00;99590.44;4991124;28;20141;-92
2023/07/21 02:40:18;;;;;;;0.45;0.45;;;;;;;20.53;100.00;99600.69;5006090;28;20842;-92
2023/07/21 02:42:44;;;;;;;0.25;0.25;;;;;;;20.54;100.00;99603.00;4964985;28;20124;-92
2023/07/21 02:45:10;;;;;;;0.38;0.38;;;;;;;20.44;100.00;99582.78;4980737;28;20038;-91
2023/07/21 02:47:35;;;;;;;1.67;0.68;;;;;;;20.57;100.00;99593.50;5014923;28;20224;-92
2023/07/21 02:50:01;;;;;;;0.22;0.22;;;;;;;20.58;100.00;99594.25;4968812;28;20073;-92
2023/07/21 02:52:27;;;;;;;0.80;0.80;;;;;;;20.59;100.00;99590.16;4980454;28;20042;-92
2023/07/21 02:54:56;;;;;;;0.57;0.57;;;;;;;20.46;100.00;99571.75;4991691;28;20033;-92
2023/07/21 02:57:21;;;;;;;0.85;0.73;;;;;;;20.32;100.00;99555.13;4983448;28;20096;-91
2023/07/21 02:59:47;;;;;;;2.92;0.80;;;;;;;20.38;100.00;99564.34;4994012;28;20146;-93
2023/07/21 03:02:13;;;;;;;3.40;0.77;;;;;;;20.16;100.00;99528.53;4980646;28;20568;-92
2023/07/21 03:04:45;;;;;;;0.65;0.60;;;;;;;20.30;100.00;99566.16;4981072;28;20050;-92
2023/07/21 03:07:13;;;;;;;0.85;0.85;;;;;;;20.12;100.00;99547.72;4985560;28;20418;-93
2023/07/21 03:09:42;;;;;;;1.27;1.00;;;;;;;20.17;100.00;99558.22;4962583;28;20286;-93
2023/07/21 03:12:18;;;;;;;1.23;0.60;;;;;;;20.18;100.00;99544.91;4967361;28;20508;-92
2023/07/21 03:15:05;;;;;;;1.15;0.57;;;;;;;20.22;100.00;99540.53;4989946;28;20075;-92
2023/07/21 03:17:45;;;;;;;2.35;1.98;;;;;;;20.18;100.00;99539.28;4974255;28;20536;-92
2023/07/21 03:20:12;;;;;;;1.35;0.50;;;;;;;20.13;100.00;99525.97;4965380;28;20041;-93
2023/07/21 03:22:38;;;;;;;0.20;0.20;;;;;;;20.08;100.00;99521.88;5009615;28;20043;-92
2023/07/21 03:25:06;;;;;;;0.65;0.50;;;;;;;19.88;100.00;99505.28;4983710;28;20037;-92
2023/07/21 03:27:35;;;;;;;0.15;0.15;;;;;;;19.98;100.00;99514.97;5001509;28;20458;-92
2023/07/21 03:30:10;;;;;;;0.32;0.30;;;;;;;20.04;100.00;99529.81;5006016;28;20042;-93
2023/07/21 03:32:45;;;;;;;1.33;0.75;;;;;;;20.09;100.00;99537.50;4994475;28;20069;-93
2023/07/21 03:35:11;;;;;;;0.63;0.55;;;;;;;20.03;100.00;99528.28;5000496;28;20050;-92
2023/07/21 03:37:39;;;;;;;1.30;0.70;;;;;;;20.05;100.00;99522.91;4981343;28;20054;-91
2023/07/21 03:40:06;;;;;;;0.50;0.50;;;;;;;19.99;100.00;99513.69;4983336;28;20041;-91
2023/07/21 03:42:33;;;;;;;1.73;1.25;;;;;;;20.07;100.00;99533.66;4981772;28;20434;-93
2023/07/21 03:45:04;;;;;;;0.28;0.28;;;;;;;20.11;100.00;99537.75;4993601;28;20421;-93
2023/07/21 03:47:31;;;;;;;0.30;0.30;;;;;;;19.99;100.00;99510.88;4983430;28;20046;-92
2023/07/21 03:49:58;;;;;;;1.08;1.02;;;;;;;19.79;100.00;99485.84;4997426;28;20057;-91
2023/07/21 03:52:24;;;;;;;0.50;0.50;;;;;;;19.85;100.00;99517.56;5011723;28;20116;-92
2023/07/21 03:54:50;;;;;;;0.38;0.38;;;;;;;19.85;100.00;99509.13;4978033;28;20065;-92
2023/07/21 03:57:16;;;;;;;0.40;0.40;;;;;;;19.86;100.00;99508.59;4980384;28;20049;-91
2023/07/21 03:59:42;;;;;;;1.05;0.98;;;;;;;19.85;100.00;99514.75;5005028;28;20125;-92
2023/07/21 04:02:08;;;;;;;0.32;0.32;;;;;;;19.79;100.00;99516.78;4994613;28;20042;-92
2023/07/21 04:04:34;;;;;;;0.22;0.22;;;;;;;19.59;100.00;99503.75;4980229;28;20026;-92
2023/07/21 04:07:01;;;;;;;0.40;0.40;;;;;;;19.74;100.00;99540.84;5006526;28;20041;-92
2023/07/21 04:09:28;;;;;;;0.93;0.90;;;;;;;19.72;100.00;99537.00;4982222;28;20737;-92
2023/07/21 04:11:53;;;;;;;1.65;1.25;;;;;;;19.72;100.00;99537.00;4994908;28;20049;-92
2023/07/21 04:14:19;;;;;;;0.70;0.70;;;;;;;19.80;100.00;99526.78;4998413;28;20061;-93
2023/07/21 04:16:45;;;;;;;2.58;0.32;;;;;;;19.82;100.00;99518.56;4991496;28;20136;-92
2023/07/21 04:19:11;;;;;;;0.35;0.35;;;;;;;19.99;100.00;99539.03;4976870;28;20061;-93
2023/07/21 04:21:37;;;;;;;2.45;1.45;;;;;;;19.99;100.00;99539.03;5011005;28;20048;-92
2023/07/21 04:24:03;;;;;;;0.57;0.57;;;;;;;19.93;100.00;99518.59;4986990;28;20394;-91
2023/07/21 04:26:28;;;;;;;0.82;0.80;;;;;;;19.89;100.00;99524.47;4994989;28;20384;-92
2023/07/21 04:28:54;;;;;;;0.52;0.50;;;;;;;20.11;100.00;99545.41;4991608;28;20435;-92
2023/07/21 04:31:22;;;;;;;1.38;1.27;;;;;;;20.00;100.00;99529.31;5008443;28;20481;-93
2023/07/21 04:33:59;;;;;;;4.00;0.75;;;;;;;20.01;100.00;99522.41;4976266;28;20478;-93
2023/07/21 04:36:27;;;;;;;2.55;1.05;;;;;;;20.14;100.00;99545.16;5000782;28;20072;-92
2023/07/21 04:38:55;;;;;;;2.17;0.85;;;;;;;20.21;100.00;99547.47;4994621;28;20037;-91
2023/07/21 04:41:21;;;;;;;0.88;0.88;;;;;;;20.06;100.00;99521.63;4979856;28;20443;-92
2023/07/21 04:43:46;;;;;;;0.65;0.57;;;;;;;20.21;100.00;99539.00;5004677;28;20107;-91
2023/07/21 04:46:13;;;;;;;1.13;1.02;;;;;;;20.14;100.00;99525.44;5005354;28;20115;-92
2023/07/21 04:48:39;;;;;;;1.30;0.50;;;;;;;20.28;100.00;99532.84;4974186;28;20125;-92
2023/07/21 04:51:10;;;;;;;0.77;0.63;;;;;;;20.43;100.00;99550.25;5005714;28;20046;-92
2023/07/21 04:53:36;;;;;;;2.10;1.75;;;;;;;20.45;100.00;99536.41;4976192;28;20437;-92
2023/07/21 04:56:01;;;;;;;1.15;0.82;;;;;;;20.51;100.00;99538.44;4975923;28;20044;-93
2023/07/21 04:58:32;;;;;;;0.47;0.47;;;;;;;20.48;100.00;99532.56;4961408;28;20048;-91
2023/07/21 05:00:58;;;;;;;1.67;0.77;;;;;;;20.67;100.00;99552.47;5001816;28;20129;-92
2023/07/21 05:03:24;;;;;;;0.70;0.70;;;;;;;20.60;100.00;99535.31;4988845;28;20498;-93
2023/07/21 05:05:49;;;;;;;0.60;0.47;;;;;;;20.73;100.00;99555.28;4982875;28;20046;-91
2023/07/21 05:08:16;;;;;;;0.57;0.55;;;;;;;20.59;100.00;99539.44;4978994;28;20064;-91
2023/07/21 05:10:42;;;;;;;0.40;0.40;;;;;;;20.73;100.00;99541.94;4987326;28;20034;-92
2023/07/21 05:13:13;;;;;;;0.32;0.32;;;;;;;20.79;100.00;99536.28;4961295;28;20068;-92
2023/07/21 05:15:51;;;;;;;0.70;0.70;;;;;;;20.76;100.00;99524.00;4962375;28;20041;-91
2023/07/21 05:18:26;;;;;;;0.65;0.65;;;;;;;21.01;100.00;99546.69;4990860;28;20522;-91
2023/07/21 05:21:07;;;;;;;0.55;0.52;;;;;;;20.96;100.00;99528.50;4974124;28;20042;-90
2023/07/21 05:23:41;;;;;;;0.65;0.65;;;;;;;21.09;100.00;99542.03;4958680;28;20126;-91
2023/07/21 05:26:16;;;;;;;0.80;0.65;;;;;;;21.24;100.00;99548.88;4986953;28;20046;-91
2023/07/21 05:28:41;;;;;;;2.20;0.88;;;;;;;21.25;100.00;99532.72;4985598;28;20054;-91
2023/07/21 05:31:11;;;;;;;0.32;0.32;;;;;;;21.23;100.00;99516.31;4978186;28;20029;-91
2023/07/21 05:34:00;;;;;;;0.32;0.32;;;;;;;21.24;100.00;99525.53;4966217;28;20129;-91
2023/07/21 05:36:29;;;;;;;0.63;0.63;;;;;;;21.30;100.00;99532.69;4954944;28;20046;-91
2023/07/21 05:38:55;;;;;;;0.30;0.30;;;;;;;21.33;100.00;99531.66;5000705;28;20045;-91
2023/07/21 05:41:22;;;;;;;0.60;0.50;;;;;;;21.28;100.00;99521.16;4998154;28;20033;-91
2023/07/21 05:43:48;;;;;;;0.43;0.43;;;;;;;21.44;100.00;99552.59;4988505;28;20165;-91
2023/07/21 05:46:13;;;;;;;0.57;0.50;;;;;;;21.44;100.00;99535.66;4996985;28;20497;-91
2023/07/21 05:48:49;;;;;;;0.63;0.60;;;;;;;21.59;100.00;99553.00;4976274;28;20168;-91
2023/07/21 05:51:17;;;;;;;1.17;0.65;;;;;;;21.59;100.00;99555.84;4990886;28;20645;-90
2023/07/21 05:53:44;;;;;;;1.38;1.10;;;;;;;21.60;100.00;99541.19;4978690;28;20045;-91
2023/07/21 05:56:14;;;;;;;0.68;0.68;;;;;;;21.47;100.00;99532.59;5000297;28;20038;-91
2023/07/21 05:59:00;;;;;;;1.48;1.25;;;;;;;21.59;100.00;99541.72;4976135;28;20046;-91
2023/07/21 06:01:29;;;;;;;1.60;0.65;;;;;;;21.55;100.00;99533.56;4975207;28;20116;-90
2023/07/21 06:03:56;;;;;;;0.43;0.43;;;;;;;21.64;100.00;99535.25;4986696;28;20124;-92
2023/07/21 06:06:23;;;;;;;0.80;0.80;;;;;;;21.77;100.00;99552.34;4985983;28;20568;-92
2023/07/21 06:09:01;;;;;;;1.02;0.80;;;;;;;21.59;100.00;99533.25;4991401;28;20041;-91
2023/07/21 06:11:53;;;;;;;0.65;0.65;;;;;;;21.71;100.00;99560.09;4983835;28;20038;-95
2023/07/21 06:14:41;;;;;;;0.73;0.73;;;;;;;21.54;100.00;99528.41;4970529;28;20052;-91
2023/07/21 06:17:13;;;;;;;0.20;0.20;;;;;;;21.61;100.00;99530.66;5003916;28;20046;-93
2023/07/21 06:19:39;;;;;;;0.82;0.70;;;;;;;21.58;100.00;99526.84;5002762;28;20096;-92
2023/07/21 06:22:05;;;;;;;0.35;0.35;;;;;;;21.70;100.00;99539.56;4971757;28;20526;-91
2023/07/21 06:24:32;;;;;;;1.23;1.02;;;;;;;21.80;100.00;99545.63;4954209;28;20038;-90
2023/07/21 06:26:59;;;;;;;0.95;0.80;;;;;;;21.65;100.00;99536.78;4974678;28;20056;-91
2023/07/21 06:29:25;;;;;;;0.90;0.90;;;;;;;21.60;100.00;99540.41;4952529;28;20534;-91
2023/07/21 06:31:51;;;;;;;0.65;0.65;;;;;;;21.37;100.00;99523.66;4957316;28;20038;-92
2023/07/21 06:34:37;;;;;;;0.95;0.90;;;;;;;21.30;100.00;99524.22;4966731;28;20412;-93
2023/07/21 06:37:22;;;;;;;0.85;0.75;;;;;;;21.24;100.00;99519.91;4977965;28;20406;-92
2023/07/21 06:43:15;;;;;;;2.80;0.95;;;;;;;21.04;100.00;99501.28;5083472;23;20493;-91
2023/07/21 06:46:03;;;;;;;0.82;0.82;;;;;;;20.94;100.00;99492.38;4893364;28;20050;-89
2023/07/21 06:49:07;;;;;;;1.17;0.80;;;;;;;20.97;100.00;99493.38;4898013;29;20051;-90
2023/07/21 06:51:44;;;;;;;0.75;0.63;;;;;;;20.84;100.00;99479.09;4888548;29;20047;-89
2023/07/21 06:54:11;;;;;;;0.75;0.60;;;;;;;20.87;100.00;99469.59;4916100;28;20038;-89
2023/07/21 06:56:38;;;;;;;0.63;0.60;;;;;;;20.87;100.00;99458.31;4921297;28;20049;-90
2023/07/21 06:59:03;;;;;;;1.40;1.13;;;;;;;20.89;100.00;99450.13;4916550;28;20086;-93
2023/07/21 07:01:29;;;;;;;1.05;0.52;;;;;;;20.95;100.00;99459.28;4918988;28;20130;-90
2023/07/21 07:03:55;;;;;;;0.75;0.50;;;;;;;21.05;100.00;99448.47;4938088;28;20047;-90
2023/07/21 07:06:21;;;;;;;0.55;0.52;;;;;;;21.16;100.00;99452.00;4923001;28;20049;-91
2023/07/21 07:08:47;;;;;;;0.30;0.30;;;;;;;21.24;100.00;99452.22;4934426;28;20043;-91
2023/07/21 07:11:14;;;;;;;1.35;0.60;;;;;;;21.37;100.00;99444.66;4925030;28;20047;-90
2023/07/21 07:13:40;;;;;;;0.73;0.73;;;;;;;21.48;100.00;99431.75;4936045;28;20125;-90
2023/07/21 07:16:05;;;;;;;1.02;0.90;;;;;;;21.61;100.00;99429.06;4945118;28;20468;-89
2023/07/21 07:18:31;;;;;;;0.20;0.20;;;;;;;21.81;100.00;99420.13;4951281;28;20313;-89
2023/07/21 07:20:56;;;;;;;0.70;0.70;;;;;;;22.04;100.00;99421.44;4936738;28;20121;-90
2023/07/21 07:23:22;;;;;;;0.65;0.65;;;;;;;22.23;100.00;99416.63;4935868;28;20589;-90
2023/07/21 07:25:50;;;;;;;0.63;0.63;;;;;;;22.54;100.00;99406.69;4928961;28;20050;-90
2023/07/21 07:28:17;;;;;;;0.30;0.30;;;;;;;22.84;100.00;99412.22;4936462;28;20046;-89
2023/07/21 07:30:44;;;;;;;0.60;0.60;;;;;;;23.25;100.00;99421.06;4935093;28;20042;-89
2023/07/21 07:33:10;;;;;;;0.88;0.88;;;;;;;23.68;100.00;99425.78;4934471;28;20046;-90
2023/07/21 07:35:35;;;;;;;1.77;0.75;;;;;;;23.93;100.00;99415.03;4950279;28;20035;-90
2023/07/21 07:38:01;;;;;;;0.50;0.50;;;;;;;24.15;100.00;99412.53;4936354;28;20038;-91
2023/07/21 07:40:27;;;;;;;0.32;0.32;;;;;;;24.39;100.00;99425.69;4923321;28;20047;-91
2023/07/21 07:42:52;;;;;;;1.25;0.50;;;;;;;24.46;100.00;99424.28;4920997;28;20047;-90
2023/07/21 07:45:20;;;;;;;0.35;0.35;;;;;;;24.60;100.00;99428.59;4937811;28;20101;-90
2023/07/21 07:47:49;;;;;;;0.13;0.13;;;;;;;24.72;100.00;99418.53;4937412;28;20529;-90
2023/07/21 07:50:16;;;;;;;1.13;0.88;;;;;;;24.76;100.00;99418.94;4931745;28;20535;-90
2023/07/21 07:52:44;;;;;;;0.80;0.80;;;;;;;24.85;100.00;99424.19;4908276;28;20035;-91
2023/07/21 07:55:10;;;;;;;0.63;0.63;;;;;;;24.96;100.00;99423.94;4933991;28;20111;-90
2023/07/21 07:57:36;;;;;;;0.40;0.40;;;;;;;25.03;100.00;99417.56;4918825;28;20060;-91
2023/07/21 08:00:06;;;;;;;1.48;1.38;;;;;;;25.24;98.72;99408.31;4943581;28;20053;-90
2023/07/21 08:02:37;;;;;;;0.60;0.50;;;;;;;25.59;99.80;99418.31;4937988;28;20043;-91
2023/07/21 08:05:02;;;;;;;0.35;0.30;;;;;;;25.77;98.75;99435.09;4919477;28;20137;-91
2023/07/21 08:07:28;;;;;;;0.45;0.45;;;;;;;25.72;93.19;99438.09;4936010;28;20047;-91
2023/07/21 08:09:53;;;;;;;0.52;0.45;;;;;;;25.88;91.18;99451.09;4933990;28;20109;-91
2023/07/21 08:12:19;;;;;;;1.80;0.55;;;;;;;25.50;84.78;99451.53;4920636;28;20098;-90
2023/07/21 08:14:45;;;;;;;0.52;0.52;;;;;;;25.56;88.25;99462.03;4949203;28;20523;-91
2023/07/21 08:17:10;;;;;;;0.80;0.70;;;;;;;25.50;89.90;99445.09;4921803;28;20047;-90
2023/07/21 08:19:36;;;;;;;0.45;0.45;;;;;;;25.52;90.02;99454.59;4917410;28;20054;-90
2023/07/21 08:22:05;;;;;;;0.88;0.70;;;;;;;25.50;89.09;99450.75;4916238;29;20071;-91
2023/07/21 08:24:30;;;;;;;0.20;0.20;;;;;;;25.42;88.02;99461.28;4917264;28;20498;-91
2023/07/21 08:26:57;;;;;;;0.30;0.30;;;;;;;25.34;90.26;99466.91;4936494;28;20045;-91
2023/07/21 08:29:23;;;;;;;0.35;0.35;;;;;;;25.04;87.26;99475.09;4937504;28;20035;-91
2023/07/21 08:31:48;;;;;;;1.42;0.80;;;;;;;24.79;91.60;99483.09;4935416;28;20418;-90
2023/07/21 08:34:14;;;;;;;1.88;1.00;;;;;;;24.75;90.06;99474.16;4922297;28;20035;-90
2023/07/21 08:36:39;;;;;;;0.45;0.40;;;;;;;24.66;92.88;99488.81;4955267;28;20102;-91
2023/07/21 08:39:05;;;;;;;0.20;0.20;;;;;;;24.43;89.64;99470.72;4948545;28;20035;-91
2023/07/21 08:41:33;;;;;;;1.13;1.02;;;;;;;24.45;95.40;99476.59;4948038;28;20078;-90
2023/07/21 08:43:59;;;;;;;0.28;0.28;;;;;;;24.51;95.99;99477.25;4936030;28;20047;-90
2023/07/21 08:46:24;;;;;;;5.18;0.93;;;;;;;24.53;92.95;99483.13;4937313;28;20065;-91
2023/07/21 08:48:52;;;;;;;0.47;0.47;;;;;;;24.36;91.16;99483.47;4927643;29;20035;-90
2023/07/21 08:51:17;;;;;;;0.47;0.32;;;;;;;24.32;93.15;99476.59;4949984;28;20054;-91
2023/07/21 08:53:43;;;;;;;0.65;0.57;;;;;;;24.41;94.29;99479.00;4933689;29;20530;-90
2023/07/21 08:56:09;;;;;;;0.57;0.57;;;;;;;24.49;94.52;99491.97;4921942;28;20054;-91
2023/07/21 08:58:35;;;;;;;4.35;0.52;;;;;;;24.57;94.18;99492.06;4933737;29;20040;-90
2023/07/21 09:01:04;;;;;;;0.43;0.35;;;;;;;24.56;98.28;99479.22;4920937;28;20072;-91
2023/07/21 09:03:30;;;;;;;0.65;0.65;;;;;;;24.57;96.57;99480.75;4937575;28;20038;-91
2023/07/21 09:05:58;;;;;;;0.77;0.77;;;;;;;24.53;92.64;99477.47;4921896;28;20074;-91
2023/07/21 09:08:27;;;;;;;0.63;0.63;;;;;;;24.49;91.69;99479.88;4933812;29;20778;-91
2023/07/21 09:10:57;;;;;;;0.90;0.75;;;;;;;24.44;95.67;99472.25;4935097;28;20051;-90
2023/07/21 09:13:23;;;;;;;0.63;0.63;;;;;;;24.59;91.68;99472.44;4921188;28;20045;-90
2023/07/21 09:16:05;;;;;;;1.77;1.33;;;;;;;24.89;91.36;99484.19;4936119;28;20047;-91
2023/07/21 09:18:42;;;;;;;0.45;0.32;;;;;;;25.07;88.49;99471.91;4937155;28;20491;-90
2023/07/21 09:21:28;;;;;;;0.55;0.55;;;;;;;25.17;85.37;99474.28;4921502;28;20078;-90
2023/07/21 09:24:04;;;;;;;1.02;0.95;;;;;;;25.37;82.57;99467.84;4936237;28;20418;-91
2023/07/21 09:26:29;;;;;;;0.85;0.80;;;;;;;25.65;79.19;99467.94;4921344;28;20058;-90
2023/07/21 09:28:55;;;;;;;0.20;0.20;;;;;;;26.16;77.74;99470.22;4936105;28;20100;-90
2023/07/21 09:31:28;;;;;;;0.88;0.57;;;;;;;26.77;77.38;99440.03;4920872;28;20162;-91
2023/07/21 09:33:54;;;;;;;0.30;0.30;;;;;;;27.27;73.53;99458.41;4940534;28;20455;-91
2023/07/21 09:36:22;;;;;;;0.47;0.47;;;;;;;27.47;71.64;99425.41;4920852;28;20070;-91
2023/07/21 09:38:48;;;;;;;0.50;0.50;;;;;;;27.72;69.75;99434.91;4913718;29;20328;-90
2023/07/21 09:41:15;;;;;;;0.68;0.68;;;;;;;27.67;68.18;99419.53;4931142;28;20090;-91
2023/07/21 09:43:42;;;;;;;2.67;1.63;;;;;;;27.84;65.20;99438.88;4923405;28;20479;-90
2023/07/21 09:46:08;;;;;;;0.57;0.52;;;;;;;28.04;64.10;99440.75;4920214;28;20498;-90
2023/07/21 09:48:35;;;;;;;1.40;0.82;;;;;;;28.05;60.19;99430.88;4935863;28;20133;-91
2023/07/21 09:51:04;;;;;;;0.85;0.55;;;;;;;28.23;64.30;99428.94;4922816;28;20142;-90
2023/07/21 09:53:38;;;;;;;0.50;0.50;;;;;;;28.44;58.56;99420.91;4936185;28;20054;-90
2023/07/21 09:56:04;;;;;;;1.25;0.60;;;;;;;29.06;58.01;99436.44;4952786;28;20046;-90
2023/07/21 09:58:30;;;;;;;0.75;0.57;;;;;;;29.47;50.53;99444.38;4936002;28;20157;-91
2023/07/21 10:01:01;;;;;;;0.60;0.60;;;;;;;29.79;48.44;99440.66;4936106;28;20053;-91
2023/07/21 10:03:26;;;;;;;1.58;0.88;;;;;;;29.85;47.88;99444.03;4936555;28;20050;-91
2023/07/21 10:05:53;;;;;;;0.70;0.70;;;;;;;29.70;47.42;99432.75;4936794;28;20041;-91
2023/07/21 10:08:21;;;;;;;1.05;1.05;;;;;;;29.43;48.00;99431.84;4935987;28;20078;-90
2023/07/21 10:10:47;;;;;;;0.93;0.88;;;;;;;29.27;49.52;99431.16;4934457;28;20039;-91
2023/07/21 10:13:12;;;;;;;0.40;0.40;;;;;;;29.33;49.29;99428.09;4951293;28;20418;-90
2023/07/21 10:15:40;;;;;;;0.73;0.70;;;;;;;29.09;49.19;99426.69;4916096;29;20053;-91
2023/07/21 10:18:07;;;;;;;0.65;0.65;;;;;;;28.78;50.06;99436.78;4911694;28;20105;-91
2023/07/21 10:20:39;;;;;;;1.35;1.17;;;;;;;28.57;52.24;99434.94;4916978;29;20106;-90
2023/07/21 10:23:06;;;;;;;0.40;0.40;;;;;;;28.25;51.18;99443.41;4933446;28;20058;-90
2023/07/21 10:25:47;;;;;;;0.73;0.70;;;;;;;27.95;53.69;99426.31;4935968;28;20061;-90
2023/07/21 10:28:15;;;;;;;0.50;0.50;;;;;;;27.80;56.97;99427.88;4965336;28;20050;-90
2023/07/21 10:30:43;;;;;;;0.40;0.40;;;;;;;27.48;56.69;99407.00;4937786;28;20608;-91
2023/07/21 10:33:17;;;;;;;0.73;0.73;;;;;;;27.48;58.32;99416.31;4952284;28;20163;-92
2023/07/21 10:35:42;;;;;;;0.95;0.77;;;;;;;27.66;58.27;99414.41;4920405;28;20438;-91
2023/07/21 10:38:14;;;;;;;0.40;0.40;;;;;;;27.77;57.19;99422.56;4935881;28;20050;-90
2023/07/21 10:40:44;;;;;;;0.30;0.30;;;;;;;27.77;56.86;99420.47;4935684;28;20466;-91
2023/07/21 10:43:10;;;;;;;1.25;1.08;;;;;;;27.70;55.68;99412.69;4934856;28;20082;-91
2023/07/21 10:45:36;;;;;;;0.30;0.30;;;;;;;27.51;56.98;99417.25;4918798;28;20087;-91
2023/07/21 10:48:16;;;;;;;3.40;1.25;;;;;;;27.31;58.87;99416.84;4935350;28;20059;-91
2023/07/21 10:50:51;;;;;;;1.02;0.77;;;;;;;27.35;60.47;99427.84;4952152;28;20065;-90
2023/07/21 10:53:17;;;;;;;0.60;0.57;;;;;;;27.46;57.92;99421.78;4935970;28;20035;-91
2023/07/21 10:55:42;;;;;;;0.32;0.32;;;;;;;27.76;58.90;99418.94;4945156;29;20526;-91
2023/07/21 10:58:08;;;;;;;1.13;0.93;;;;;;;27.89;56.21;99417.22;4956306;28;20049;-90
2023/07/21 11:00:47;;;;;;;1.15;1.05;;;;;;;28.23;54.40;99420.41;4917526;29;20067;-91
2023/07/21 11:03:13;;;;;;;1.15;0.90;;;;;;;28.45;53.27;99405.31;4937741;28;20631;-90
2023/07/21 11:05:39;;;;;;;0.88;0.57;;;;;;;29.14;51.29;99417.16;4939208;28;20146;-91
2023/07/21 11:08:05;;;;;;;0.50;0.50;;;;;;;29.51;47.32;99421.88;4955307;28;20030;-90
2023/07/21 11:10:33;;;;;;;0.43;0.43;;;;;;;29.94;47.25;99416.91;4923264;28;20473;-91
2023/07/21 11:13:00;;;;;;;0.28;0.28;;;;;;;30.62;46.30;99415.41;4939656;28;20502;-91
2023/07/21 11:15:26;;;;;;;0.50;0.50;;;;;;;30.94;43.72;99424.50;4938522;28;20047;-90
2023/07/21 11:17:58;;;;;;;0.57;0.57;;;;;;;30.60;42.15;99420.97;4937093;28;20129;-91
2023/07/21 11:20:24;;;;;;;0.30;0.30;;;;;;;30.52;43.10;99416.13;4940315;28;20034;-91
2023/07/21 11:22:49;;;;;;;0.68;0.63;;;;;;;30.65;42.84;99414.25;4938930;28;20038;-91
2023/07/21 11:25:16;;;;;;;1.88;1.08;;;;;;;30.40;42.70;99408.59;4938907;28;20062;-91
2023/07/21 11:27:42;;;;;;;1.38;1.27;;;;;;;30.17;44.66;99400.28;4954177;28;20133;-90
2023/07/21 11:30:08;;;;;;;0.43;0.43;;;;;;;30.80;45.26;99408.31;4936915;28;20530;-91
2023/07/21 11:32:34;;;;;;;0.40;0.40;;;;;;;31.29;43.07;99408.00;4923191;28;20022;-91
2023/07/21 11:35:03;;;;;;;0.40;0.40;;;;;;;31.41;41.83;99391.75;4938969;28;20042;-90
2023/07/21 11:37:42;;;;;;;0.82;0.73;;;;;;;30.81;42.83;99392.66;4955392;28;20459;-90
2023/07/21 11:40:10;;;;;;;0.55;0.55;;;;;;;30.95;42.17;99390.91;4920420;28;20061;-90
2023/07/21 11:42:45;;;;;;;0.80;0.80;;;;;;;30.76;43.23;99396.53;4934959;29;20478;-90
2023/07/21 11:45:57;;;;;;;0.77;0.77;;;;;;;30.49;42.30;99391.50;4933445;28;20054;-91
2023/07/21 11:48:48;;;;;;;0.57;0.57;;;;;;;30.35;44.22;99401.78;4919836;28;20054;-91
2023/07/21 11:51:16;;;;;;;2.78;0.95;;;;;;;30.54;43.61;99396.22;4923771;28;20488;-89
2023/07/21 11:53:47;;;;;;;0.82;0.82;;;;;;;30.51;43.39;99383.09;4921961;28;20047;-89
2023/07/21 11:56:14;;;;;;;0.20;0.20;;;;;;;30.54;42.79;99376.19;4923023;28;20054;-89
2023/07/21 11:58:44;;;;;;;0.73;0.73;;;;;;;30.50;41.92;99381.59;4953327;28;20031;-90